sensor_id;sensor_type;location;lat;lon;timestamp;temperature;humidity
52979;DHT22;63430;53.186;6.598;2023-10-08T00:01:27;13.00;99.90
52979;DHT22;63430;53.186;6.598;2023-10-08T00:03:30;13.00;99.90
52979;DHT22;63430;53.186;6.598;2023-10-08T00:05:35;13.00;99.90
52979;DHT22;63430;53.186;6.598;2023-10-08T00:07:41;13.00;99.90
52979;DHT22;63430;53.186;6.598;2023-10-08T00:09:45;12.90;99.90
52979;DHT22;63430;53.186;6.598;2023-10-08T00:11:47;12.90;99.90
52979;DHT22;63430;53.186;6.598;2023-10-08T00:13:56;12.90;99.90
52979;DHT22;63430;53.186;6.598;2023-10-08T00:15:59;12.90;99.90
52979;DHT22;63430;53.186;6.598;2023-10-08T00:18:03;12.90;99.90
52979;DHT22;63430;53.186;6.598;2023-10-08T00:20:08;12.90;99.90
52979;DHT22;63430;53.186;6.598;2023-10-08T00:22:11;12.90;99.90
52979;DHT22;63430;53.186;6.598;2023-10-08T00:24:18;12.80;99.90
52979;DHT22;63430;53.186;6.598;2023-10-08T00:26:27;12.90;99.90
52979;DHT22;63430;53.186;6.598;2023-10-08T00:28:31;12.80;99.90
52979;DHT22;63430;53.186;6.598;2023-10-08T00:30:34;12.80;99.90
52979;DHT22;63430;53.186;6.598;2023-10-08T00:32:37;12.80;99.90
52979;DHT22;63430;53.186;6.598;2023-10-08T00:34:41;12.80;99.90
52979;DHT22;63430;53.186;6.598;2023-10-08T00:36:46;12.80;99.90
52979;DHT22;63430;53.186;6.598;2023-10-08T00:38:53;12.80;99.90
52979;DHT22;63430;53.186;6.598;2023-10-08T00:41:03;12.80;99.90
52979;DHT22;63430;53.186;6.598;2023-10-08T00:43:06;12.80;99.90
52979;DHT22;63430;53.186;6.598;2023-10-08T00:45:12;12.80;99.90
52979;DHT22;63430;53.186;6.598;2023-10-08T00:47:19;12.80;99.90
52979;DHT22;63430;53.186;6.598;2023-10-08T00:49:27;12.80;99.90
52979;DHT22;63430;53.186;6.598;2023-10-08T00:51:46;12.80;99.90
52979;DHT22;63430;53.186;6.598;2023-10-08T00:53:51;12.80;99.90
52979;DHT22;63430;53.186;6.598;2023-10-08T00:55:54;12.80;99.90
52979;DHT22;63430;53.186;6.598;2023-10-08T00:58:18;12.80;99.90
52979;DHT22;63430;53.186;6.598;2023-10-08T01:00:27;12.80;99.90
52979;DHT22;63430;53.186;6.598;2023-10-08T01:03:06;12.70;99.90
52979;DHT22;63430;53.186;6.598;2023-10-08T01:05:36;12.90;99.90
52979;DHT22;63430;53.186;6.598;2023-10-08T01:08:11;12.80;99.90
52979;DHT22;63430;53.186;6.598;2023-10-08T01:10:24;12.80;99.90
52979;DHT22;63430;53.186;6.598;2023-10-08T01:12:27;12.80;99.90
52979;DHT22;63430;53.186;6.598;2023-10-08T01:14:39;12.80;99.90
52979;DHT22;63430;53.186;6.598;2023-10-08T01:17:00;12.80;99.90
52979;DHT22;63430;53.186;6.598;2023-10-08T01:19:03;12.80;99.90
52979;DHT22;63430;53.186;6.598;2023-10-08T01:21:23;12.80;99.90
52979;DHT22;63430;53.186;6.598;2023-10-08T01:23:44;12.80;99.90
52979;DHT22;63430;53.186;6.598;2023-10-08T01:25:50;12.80;99.90
52979;DHT22;63430;53.186;6.598;2023-10-08T01:28:05;13.00;99.90
52979;DHT22;63430;53.186;6.598;2023-10-08T01:30:16;12.80;99.90
52979;DHT22;63430;53.186;6.598;2023-10-08T01:32:22;12.80;99.90
52979;DHT22;63430;53.186;6.598;2023-10-08T01:34:28;12.80;99.90
52979;DHT22;63430;53.186;6.598;2023-10-08T01:36:38;12.90;99.90
52979;DHT22;63430;53.186;6.598;2023-10-08T01:38:43;12.90;99.90
52979;DHT22;63430;53.186;6.598;2023-10-08T01:40:51;12.90;99.90
52979;DHT22;63430;53.186;6.598;2023-10-08T01:42:54;13.50;99.90
52979;DHT22;63430;53.186;6.598;2023-10-08T01:44:56;12.90;99.90
52979;DHT22;63430;53.186;6.598;2023-10-08T01:46:59;13.00;99.90
52979;DHT22;63430;53.186;6.598;2023-10-08T01:49:02;12.90;99.90
52979;DHT22;63430;53.186;6.598;2023-10-08T01:51:11;12.90;99.90
52979;DHT22;63430;53.186;6.598;2023-10-08T01:53:21;12.90;99.90
52979;DHT22;63430;53.186;6.598;2023-10-08T01:55:27;12.90;99.90
52979;DHT22;63430;53.186;6.598;2023-10-08T01:57:29;12.90;99.90
52979;DHT22;63430;53.186;6.598;2023-10-08T01:59:33;12.90;99.90
52979;DHT22;63430;53.186;6.598;2023-10-08T02:01:36;12.90;99.90
52979;DHT22;63430;53.186;6.598;2023-10-08T02:03:40;12.90;99.90
52979;DHT22;63430;53.186;6.598;2023-10-08T02:06:04;12.90;99.90
52979;DHT22;63430;53.186;6.598;2023-10-08T02:08:11;12.90;99.90
52979;DHT22;63430;53.186;6.598;2023-10-08T02:10:38;12.90;99.90
52979;DHT22;63430;53.186;6.598;2023-10-08T02:12:41;13.20;99.90
52979;DHT22;63430;53.186;6.598;2023-10-08T02:15:05;13.00;99.90
52979;DHT22;63430;53.186;6.598;2023-10-08T02:17:18;13.00;99.90
52979;DHT22;63430;53.186;6.598;2023-10-08T02:19:32;13.00;99.90
52979;DHT22;63430;53.186;6.598;2023-10-08T02:21:37;13.00;99.90
52979;DHT22;63430;53.186;6.598;2023-10-08T02:23:56;13.00;99.90
52979;DHT22;63430;53.186;6.598;2023-10-08T02:26:06;13.00;99.90
52979;DHT22;63430;53.186;6.598;2023-10-08T02:28:09;13.40;99.90
52979;DHT22;63430;53.186;6.598;2023-10-08T02:30:15;13.00;99.90
52979;DHT22;63430;53.186;6.598;2023-10-08T02:32:17;13.00;99.90
52979;DHT22;63430;53.186;6.598;2023-10-08T02:34:21;13.00;99.90
52979;DHT22;63430;53.186;6.598;2023-10-08T02:36:46;13.00;99.90
52979;DHT22;63430;53.186;6.598;2023-10-08T02:38:53;13.00;99.90
52979;DHT22;63430;53.186;6.598;2023-10-08T02:40:57;13.00;99.90
52979;DHT22;63430;53.186;6.598;2023-10-08T02:43:05;13.00;99.90
52979;DHT22;63430;53.186;6.598;2023-10-08T02:45:12;13.00;99.90
52979;DHT22;63430;53.186;6.598;2023-10-08T02:47:16;13.00;99.90
52979;DHT22;63430;53.186;6.598;2023-10-08T02:49:23;13.00;99.90
52979;DHT22;63430;53.186;6.598;2023-10-08T02:51:26;13.50;99.90
52979;DHT22;63430;53.186;6.598;2023-10-08T02:53:29;13.00;99.90
52979;DHT22;63430;53.186;6.598;2023-10-08T02:55:32;13.00;99.90
52979;DHT22;63430;53.186;6.598;2023-10-08T02:57:44;13.20;99.90
52979;DHT22;63430;53.186;6.598;2023-10-08T02:59:49;13.00;99.90
52979;DHT22;63430;53.186;6.598;2023-10-08T03:01:52;12.90;99.90
52979;DHT22;63430;53.186;6.598;2023-10-08T03:03:58;13.00;99.90
52979;DHT22;63430;53.186;6.598;2023-10-08T03:06:12;13.00;99.90
52979;DHT22;63430;53.186;6.598;2023-10-08T03:08:18;12.90;99.90
52979;DHT22;63430;53.186;6.598;2023-10-08T03:10:24;13.00;99.90
52979;DHT22;63430;53.186;6.598;2023-10-08T03:12:34;12.90;99.90
52979;DHT22;63430;53.186;6.598;2023-10-08T03:14:38;13.00;99.90
52979;DHT22;63430;53.186;6.598;2023-10-08T03:16:55;13.10;99.90
52979;DHT22;63430;53.186;6.598;2023-10-08T03:19:10;13.00;99.90
52979;DHT22;63430;53.186;6.598;2023-10-08T03:21:12;13.00;99.90
52979;DHT22;63430;53.186;6.598;2023-10-08T03:23:35;13.00;99.90
52979;DHT22;63430;53.186;6.598;2023-10-08T03:25:39;13.00;99.90
52979;DHT22;63430;53.186;6.598;2023-10-08T03:27:45;13.00;99.90
52979;DHT22;63430;53.186;6.598;2023-10-08T03:29:47;12.90;99.90
52979;DHT22;63430;53.186;6.598;2023-10-08T03:31:53;12.90;99.90
52979;DHT22;63430;53.186;6.598;2023-10-08T03:33:57;12.90;99.90
52979;DHT22;63430;53.186;6.598;2023-10-08T03:36:01;12.90;99.90
52979;DHT22;63430;53.186;6.598;2023-10-08T03:38:12;12.90;99.90
52979;DHT22;63430;53.186;6.598;2023-10-08T03:40:24;12.80;99.90
52979;DHT22;63430;53.186;6.598;2023-10-08T03:42:44;12.80;99.90
52979;DHT22;63430;53.186;6.598;2023-10-08T03:44:51;12.80;99.90
52979;DHT22;63430;53.186;6.598;2023-10-08T03:46:57;12.80;99.90
52979;DHT22;63430;53.186;6.598;2023-10-08T03:49:00;12.80;99.90
52979;DHT22;63430;53.186;6.598;2023-10-08T03:51:07;12.70;99.90
52979;DHT22;63430;53.186;6.598;2023-10-08T03:53:14;12.80;99.90
52979;DHT22;63430;53.186;6.598;2023-10-08T03:55:18;12.70;99.90
52979;DHT22;63430;53.186;6.598;2023-10-08T03:57:29;12.70;99.90
52979;DHT22;63430;53.186;6.598;2023-10-08T03:59:43;12.70;99.90
52979;DHT22;63430;53.186;6.598;2023-10-08T04:01:50;12.70;99.90
52979;DHT22;63430;53.186;6.598;2023-10-08T04:03:59;12.80;99.90
52979;DHT22;63430;53.186;6.598;2023-10-08T04:06:05;12.70;99.90
52979;DHT22;63430;53.186;6.598;2023-10-08T04:08:17;12.70;99.90
52979;DHT22;63430;53.186;6.598;2023-10-08T04:10:21;12.80;99.90
52979;DHT22;63430;53.186;6.598;2023-10-08T04:12:43;12.80;99.90
52979;DHT22;63430;53.186;6.598;2023-10-08T04:14:47;12.80;99.90
52979;DHT22;63430;53.186;6.598;2023-10-08T04:16:50;12.80;99.90
52979;DHT22;63430;53.186;6.598;2023-10-08T04:18:59;12.80;99.90
52979;DHT22;63430;53.186;6.598;2023-10-08T04:21:06;12.80;99.90
52979;DHT22;63430;53.186;6.598;2023-10-08T04:23:15;12.90;99.90
52979;DHT22;63430;53.186;6.598;2023-10-08T04:25:23;12.80;99.90
52979;DHT22;63430;53.186;6.598;2023-10-08T04:27:27;12.80;99.90
52979;DHT22;63430;53.186;6.598;2023-10-08T04:29:33;12.90;99.90
52979;DHT22;63430;53.186;6.598;2023-10-08T04:31:39;12.90;99.90
52979;DHT22;63430;53.186;6.598;2023-10-08T04:33:46;12.90;99.90
52979;DHT22;63430;53.186;6.598;2023-10-08T04:35:52;12.90;99.90
52979;DHT22;63430;53.186;6.598;2023-10-08T04:37:58;12.90;99.90
52979;DHT22;63430;53.186;6.598;2023-10-08T04:40:02;13.50;99.90
52979;DHT22;63430;53.186;6.598;2023-10-08T04:42:05;12.90;99.90
52979;DHT22;63430;53.186;6.598;2023-10-08T04:44:15;12.90;99.90
52979;DHT22;63430;53.186;6.598;2023-10-08T04:46:18;12.90;99.90
52979;DHT22;63430;53.186;6.598;2023-10-08T04:48:39;12.90;99.90
52979;DHT22;63430;53.186;6.598;2023-10-08T04:50:46;12.90;99.90
52979;DHT22;63430;53.186;6.598;2023-10-08T04:53:12;12.90;99.90
52979;DHT22;63430;53.186;6.598;2023-10-08T04:55:20;12.90;99.90
52979;DHT22;63430;53.186;6.598;2023-10-08T04:57:32;13.50;99.90
52979;DHT22;63430;53.186;6.598;2023-10-08T04:59:36;12.90;99.90
52979;DHT22;63430;53.186;6.598;2023-10-08T05:01:39;12.90;99.90
52979;DHT22;63430;53.186;6.598;2023-10-08T05:03:51;12.80;99.90
52979;DHT22;63430;53.186;6.598;2023-10-08T05:06:00;12.90;99.90
52979;DHT22;63430;53.186;6.598;2023-10-08T05:08:08;12.90;99.90
52979;DHT22;63430;53.186;6.598;2023-10-08T05:10:33;12.90;99.90
52979;DHT22;63430;53.186;6.598;2023-10-08T05:12:56;13.20;99.90
52979;DHT22;63430;53.186;6.598;2023-10-08T05:15:08;12.80;99.90
52979;DHT22;63430;53.186;6.598;2023-10-08T05:17:17;12.80;99.90
52979;DHT22;63430;53.186;6.598;2023-10-08T05:19:22;12.80;99.90
52979;DHT22;63430;53.186;6.598;2023-10-08T05:23:19;12.80;99.90
52979;DHT22;63430;53.186;6.598;2023-10-08T05:24:59;12.80;99.90
52979;DHT22;63430;53.186;6.598;2023-10-08T05:27:27;12.70;99.90
52979;DHT22;63430;53.186;6.598;2023-10-08T05:29:48;12.70;99.90
52979;DHT22;63430;53.186;6.598;2023-10-08T05:32:13;12.70;99.90
52979;DHT22;63430;53.186;6.598;2023-10-08T05:34:39;12.70;99.90
52979;DHT22;63430;53.186;6.598;2023-10-08T05:37:07;12.80;99.90
52979;DHT22;63430;53.186;6.598;2023-10-08T05:39:09;12.80;99.90
52979;DHT22;63430;53.186;6.598;2023-10-08T05:41:37;12.70;99.90
52979;DHT22;63430;53.186;6.598;2023-10-08T05:43:56;12.80;99.90
52979;DHT22;63430;53.186;6.598;2023-10-08T05:46:16;12.70;99.90
52979;DHT22;63430;53.186;6.598;2023-10-08T05:48:25;12.60;99.90
52979;DHT22;63430;53.186;6.598;2023-10-08T05:50:30;12.60;99.90
52979;DHT22;63430;53.186;6.598;2023-10-08T05:52:41;12.80;99.90
52979;DHT22;63430;53.186;6.598;2023-10-08T05:55:05;12.60;99.90
52979;DHT22;63430;53.186;6.598;2023-10-08T05:57:20;12.60;99.90
52979;DHT22;63430;53.186;6.598;2023-10-08T05:59:46;12.90;99.90
52979;DHT22;63430;53.186;6.598;2023-10-08T06:01:58;12.60;99.90
52979;DHT22;63430;53.186;6.598;2023-10-08T06:04:08;12.60;99.90
52979;DHT22;63430;53.186;6.598;2023-10-08T06:06:31;12.60;99.90
52979;DHT22;63430;53.186;6.598;2023-10-08T06:08:40;12.60;99.90
52979;DHT22;63430;53.186;6.598;2023-10-08T06:10:54;12.60;99.90
52979;DHT22;63430;53.186;6.598;2023-10-08T06:13:05;12.60;99.90
52979;DHT22;63430;53.186;6.598;2023-10-08T06:15:29;12.60;99.90
52979;DHT22;63430;53.186;6.598;2023-10-08T06:17:59;12.60;99.90
52979;DHT22;63430;53.186;6.598;2023-10-08T06:20:08;12.70;99.90
52979;DHT22;63430;53.186;6.598;2023-10-08T06:22:19;12.60;99.90
52979;DHT22;63430;53.186;6.598;2023-10-08T06:24:29;12.60;99.90
52979;DHT22;63430;53.186;6.598;2023-10-08T06:26:33;12.60;99.90
52979;DHT22;63430;53.186;6.598;2023-10-08T06:28:40;12.60;99.90
52979;DHT22;63430;53.186;6.598;2023-10-08T06:30:46;12.60;99.90
52979;DHT22;63430;53.186;6.598;2023-10-08T06:32:49;12.60;99.90
52979;DHT22;63430;53.186;6.598;2023-10-08T06:34:53;12.60;99.90
52979;DHT22;63430;53.186;6.598;2023-10-08T06:36:57;12.70;99.90
52979;DHT22;63430;53.186;6.598;2023-10-08T06:39:00;12.70;99.90
52979;DHT22;63430;53.186;6.598;2023-10-08T06:41:04;12.70;99.90
52979;DHT22;63430;53.186;6.598;2023-10-08T06:43:49;12.70;99.90
52979;DHT22;63430;53.186;6.598;2023-10-08T06:46:10;13.20;99.90
52979;DHT22;63430;53.186;6.598;2023-10-08T06:48:14;13.10;99.90
52979;DHT22;63430;53.186;6.598;2023-10-08T06:50:21;12.80;99.90
52979;DHT22;63430;53.186;6.598;2023-10-08T06:52:24;12.90;99.90
52979;DHT22;63430;53.186;6.598;2023-10-08T06:54:29;12.90;99.90
52979;DHT22;63430;53.186;6.598;2023-10-08T06:56:36;12.90;99.90
52979;DHT22;63430;53.186;6.598;2023-10-08T06:58:39;13.00;99.90
52979;DHT22;63430;53.186;6.598;2023-10-08T07:00:47;13.00;99.90
52979;DHT22;63430;53.186;6.598;2023-10-08T07:02:54;13.00;99.90
52979;DHT22;63430;53.186;6.598;2023-10-08T07:04:57;13.00;99.90
52979;DHT22;63430;53.186;6.598;2023-10-08T07:07:01;13.10;99.90
52979;DHT22;63430;53.186;6.598;2023-10-08T07:09:04;13.00;99.90
52979;DHT22;63430;53.186;6.598;2023-10-08T07:11:08;13.10;99.90
52979;DHT22;63430;53.186;6.598;2023-10-08T07:13:14;13.10;99.90
52979;DHT22;63430;53.186;6.598;2023-10-08T07:15:19;13.10;99.90
52979;DHT22;63430;53.186;6.598;2023-10-08T07:17:26;13.60;99.90
52979;DHT22;63430;53.186;6.598;2023-10-08T07:19:33;13.20;99.90
52979;DHT22;63430;53.186;6.598;2023-10-08T07:21:41;13.40;99.90
52979;DHT22;63430;53.186;6.598;2023-10-08T07:23:49;14.00;99.90
52979;DHT22;63430;53.186;6.598;2023-10-08T07:26:07;13.50;99.90
52979;DHT22;63430;53.186;6.598;2023-10-08T07:28:15;13.50;99.90
52979;DHT22;63430;53.186;6.598;2023-10-08T07:30:21;13.50;99.90
52979;DHT22;63430;53.186;6.598;2023-10-08T07:32:33;13.50;99.90
52979;DHT22;63430;53.186;6.598;2023-10-08T07:34:39;13.50;99.90
52979;DHT22;63430;53.186;6.598;2023-10-08T07:36:44;13.50;99.90
52979;DHT22;63430;53.186;6.598;2023-10-08T07:38:47;13.50;99.90
52979;DHT22;63430;53.186;6.598;2023-10-08T07:40:49;13.50;99.90
52979;DHT22;63430;53.186;6.598;2023-10-08T07:42:52;13.50;99.90
52979;DHT22;63430;53.186;6.598;2023-10-08T07:44:56;13.50;99.90
52979;DHT22;63430;53.186;6.598;2023-10-08T07:46:58;13.50;99.90
52979;DHT22;63430;53.186;6.598;2023-10-08T07:49:02;13.50;99.90
52979;DHT22;63430;53.186;6.598;2023-10-08T07:51:09;13.70;99.90
52979;DHT22;63430;53.186;6.598;2023-10-08T07:53:12;13.60;99.90
52979;DHT22;63430;53.186;6.598;2023-10-08T07:55:20;13.60;99.90
52979;DHT22;63430;53.186;6.598;2023-10-08T07:57:24;13.60;99.90
52979;DHT22;63430;53.186;6.598;2023-10-08T07:59:29;14.20;99.90
52979;DHT22;63430;53.186;6.598;2023-10-08T08:01:32;13.70;99.90
52979;DHT22;63430;53.186;6.598;2023-10-08T08:03:36;13.70;99.90
52979;DHT22;63430;53.186;6.598;2023-10-08T08:05:39;13.80;99.90
52979;DHT22;63430;53.186;6.598;2023-10-08T08:07:46;13.80;99.90
52979;DHT22;63430;53.186;6.598;2023-10-08T08:09:49;13.80;99.90
52979;DHT22;63430;53.186;6.598;2023-10-08T08:12:02;13.80;99.90
52979;DHT22;63430;53.186;6.598;2023-10-08T08:14:10;13.90;99.90
52979;DHT22;63430;53.186;6.598;2023-10-08T08:16:14;14.00;99.90
52979;DHT22;63430;53.186;6.598;2023-10-08T08:18:19;14.00;99.90
52979;DHT22;63430;53.186;6.598;2023-10-08T08:20:25;14.10;99.90
52979;DHT22;63430;53.186;6.598;2023-10-08T08:22:48;14.10;99.90
52979;DHT22;63430;53.186;6.598;2023-10-08T08:24:57;14.20;99.90
52979;DHT22;63430;53.186;6.598;2023-10-08T08:27:21;14.20;99.90
52979;DHT22;63430;53.186;6.598;2023-10-08T08:29:26;14.30;99.90
52979;DHT22;63430;53.186;6.598;2023-10-08T08:31:29;14.30;99.90
52979;DHT22;63430;53.186;6.598;2023-10-08T08:33:33;14.30;99.90
52979;DHT22;63430;53.186;6.598;2023-10-08T08:35:58;14.30;99.90
52979;DHT22;63430;53.186;6.598;2023-10-08T08:38:05;14.30;99.90
52979;DHT22;63430;53.186;6.598;2023-10-08T08:40:09;14.30;99.90
52979;DHT22;63430;53.186;6.598;2023-10-08T08:42:21;14.30;99.90
52979;DHT22;63430;53.186;6.598;2023-10-08T08:44:27;14.40;99.90
52979;DHT22;63430;53.186;6.598;2023-10-08T08:46:35;14.40;99.90
52979;DHT22;63430;53.186;6.598;2023-10-08T08:48:39;14.40;99.90
52979;DHT22;63430;53.186;6.598;2023-10-08T08:50:43;14.50;99.90
52979;DHT22;63430;53.186;6.598;2023-10-08T08:52:47;14.40;99.90
52979;DHT22;63430;53.186;6.598;2023-10-08T08:54:52;14.50;99.90
52979;DHT22;63430;53.186;6.598;2023-10-08T08:56:55;14.60;99.90
52979;DHT22;63430;53.186;6.598;2023-10-08T08:58:59;14.60;99.90
52979;DHT22;63430;53.186;6.598;2023-10-08T09:01:02;14.60;99.90
52979;DHT22;63430;53.186;6.598;2023-10-08T09:03:05;14.70;99.90
52979;DHT22;63430;53.186;6.598;2023-10-08T09:05:10;14.70;99.90
52979;DHT22;63430;53.186;6.598;2023-10-08T09:07:26;14.80;99.90
52979;DHT22;63430;53.186;6.598;2023-10-08T09:09:31;14.80;99.90
52979;DHT22;63430;53.186;6.598;2023-10-08T09:11:38;14.80;99.90
52979;DHT22;63430;53.186;6.598;2023-10-08T09:13:43;14.90;99.90
52979;DHT22;63430;53.186;6.598;2023-10-08T09:15:46;14.90;99.90
52979;DHT22;63430;53.186;6.598;2023-10-08T09:17:49;14.90;99.90
52979;DHT22;63430;53.186;6.598;2023-10-08T09:19:53;14.90;99.90
52979;DHT22;63430;53.186;6.598;2023-10-08T09:21:59;14.90;99.90
52979;DHT22;63430;53.186;6.598;2023-10-08T09:24:02;14.90;99.90
52979;DHT22;63430;53.186;6.598;2023-10-08T09:26:11;14.90;99.90
52979;DHT22;63430;53.186;6.598;2023-10-08T09:28:19;14.90;99.90
52979;DHT22;63430;53.186;6.598;2023-10-08T09:30:21;14.90;99.90
52979;DHT22;63430;53.186;6.598;2023-10-08T09:32:24;14.90;99.90
52979;DHT22;63430;53.186;6.598;2023-10-08T09:34:28;15.00;99.90
52979;DHT22;63430;53.186;6.598;2023-10-08T09:36:31;15.00;99.90
52979;DHT22;63430;53.186;6.598;2023-10-08T09:38:35;15.00;99.90
52979;DHT22;63430;53.186;6.598;2023-10-08T09:40:38;15.10;99.90
52979;DHT22;63430;53.186;6.598;2023-10-08T09:42:44;15.20;99.90
52979;DHT22;63430;53.186;6.598;2023-10-08T09:44:52;15.20;99.90
52979;DHT22;63430;53.186;6.598;2023-10-08T09:46:59;15.30;99.90
52979;DHT22;63430;53.186;6.598;2023-10-08T09:49:05;15.30;99.90
52979;DHT22;63430;53.186;6.598;2023-10-08T09:51:10;15.30;99.90
52979;DHT22;63430;53.186;6.598;2023-10-08T09:53:15;15.40;99.90
52979;DHT22;63430;53.186;6.598;2023-10-08T09:55:22;15.40;99.90
52979;DHT22;63430;53.186;6.598;2023-10-08T09:57:25;15.40;99.90
52979;DHT22;63430;53.186;6.598;2023-10-08T09:59:29;15.40;99.90
52979;DHT22;63430;53.186;6.598;2023-10-08T10:01:35;15.50;99.90
52979;DHT22;63430;53.186;6.598;2023-10-08T10:03:40;15.40;99.90
52979;DHT22;63430;53.186;6.598;2023-10-08T10:05:45;15.50;99.90
52979;DHT22;63430;53.186;6.598;2023-10-08T10:07:48;15.60;99.90
52979;DHT22;63430;53.186;6.598;2023-10-08T10:09:54;15.60;99.90
52979;DHT22;63430;53.186;6.598;2023-10-08T10:11:57;15.70;99.90
52979;DHT22;63430;53.186;6.598;2023-10-08T10:14:01;15.80;99.90
52979;DHT22;63430;53.186;6.598;2023-10-08T10:16:05;15.80;99.90
52979;DHT22;63430;53.186;6.598;2023-10-08T10:18:16;15.80;99.90
52979;DHT22;63430;53.186;6.598;2023-10-08T10:20:31;15.90;99.90
52979;DHT22;63430;53.186;6.598;2023-10-08T10:22:35;15.90;99.90
52979;DHT22;63430;53.186;6.598;2023-10-08T10:24:38;16.00;99.90
52979;DHT22;63430;53.186;6.598;2023-10-08T10:26:43;15.90;99.90
52979;DHT22;63430;53.186;6.598;2023-10-08T10:29:19;16.10;99.90
52979;DHT22;63430;53.186;6.598;2023-10-08T10:31:25;16.40;99.90
52979;DHT22;63430;53.186;6.598;2023-10-08T10:33:33;16.60;99.90
52979;DHT22;63430;53.186;6.598;2023-10-08T10:35:36;16.80;99.90
52979;DHT22;63430;53.186;6.598;2023-10-08T10:37:42;16.80;99.90
52979;DHT22;63430;53.186;6.598;2023-10-08T10:39:53;16.80;99.90
52979;DHT22;63430;53.186;6.598;2023-10-08T10:41:58;16.80;99.90
52979;DHT22;63430;53.186;6.598;2023-10-08T10:44:06;16.70;99.90
52979;DHT22;63430;53.186;6.598;2023-10-08T10:46:10;16.60;99.90
52979;DHT22;63430;53.186;6.598;2023-10-08T10:48:37;16.60;99.90
52979;DHT22;63430;53.186;6.598;2023-10-08T10:50:41;16.50;99.90
52979;DHT22;63430;53.186;6.598;2023-10-08T10:52:51;16.50;99.90
52979;DHT22;63430;53.186;6.598;2023-10-08T10:54:53;16.50;99.90
52979;DHT22;63430;53.186;6.598;2023-10-08T10:57:03;16.50;99.90
52979;DHT22;63430;53.186;6.598;2023-10-08T10:59:09;16.50;99.90
52979;DHT22;63430;53.186;6.598;2023-10-08T11:01:23;16.50;99.90
52979;DHT22;63430;53.186;6.598;2023-10-08T11:03:28;16.50;99.90
52979;DHT22;63430;53.186;6.598;2023-10-08T11:05:38;16.60;99.90
52979;DHT22;63430;53.186;6.598;2023-10-08T11:07:41;16.80;99.90
52979;DHT22;63430;53.186;6.598;2023-10-08T11:09:47;17.10;99.90
52979;DHT22;63430;53.186;6.598;2023-10-08T11:11:50;17.10;99.00
52979;DHT22;63430;53.186;6.598;2023-10-08T11:13:59;17.20;98.70
52979;DHT22;63430;53.186;6.598;2023-10-08T11:16:04;17.20;97.70
52979;DHT22;63430;53.186;6.598;2023-10-08T11:18:07;17.10;97.30
52979;DHT22;63430;53.186;6.598;2023-10-08T11:20:24;17.20;97.10
52979;DHT22;63430;53.186;6.598;2023-10-08T11:22:45;17.10;93.70
52979;DHT22;63430;53.186;6.598;2023-10-08T11:24:48;17.10;94.80
52979;DHT22;63430;53.186;6.598;2023-10-08T11:26:51;16.90;96.00
52979;DHT22;63430;53.186;6.598;2023-10-08T11:29:08;16.90;96.00
52979;DHT22;63430;53.186;6.598;2023-10-08T11:31:18;17.20;96.50
52979;DHT22;63430;53.186;6.598;2023-10-08T11:33:24;16.90;95.70
52979;DHT22;63430;53.186;6.598;2023-10-08T11:35:29;16.90;95.50
52979;DHT22;63430;53.186;6.598;2023-10-08T11:37:36;16.90;95.70
52979;DHT22;63430;53.186;6.598;2023-10-08T11:39:42;16.90;95.20
52979;DHT22;63430;53.186;6.598;2023-10-08T11:41:55;16.90;94.70
52979;DHT22;63430;53.186;6.598;2023-10-08T11:43:58;16.90;93.20
52979;DHT22;63430;53.186;6.598;2023-10-08T11:46:01;17.00;94.40
52979;DHT22;63430;53.186;6.598;2023-10-08T11:48:06;17.00;94.30
52979;DHT22;63430;53.186;6.598;2023-10-08T11:50:16;16.90;93.80
52979;DHT22;63430;53.186;6.598;2023-10-08T11:52:21;17.00;93.30
52979;DHT22;63430;53.186;6.598;2023-10-08T11:54:24;17.00;93.20
52979;DHT22;63430;53.186;6.598;2023-10-08T11:56:31;16.90;92.60
52979;DHT22;63430;53.186;6.598;2023-10-08T11:58:35;16.90;92.60
52979;DHT22;63430;53.186;6.598;2023-10-08T12:00:40;17.00;93.00
52979;DHT22;63430;53.186;6.598;2023-10-08T12:02:48;16.90;87.50
52979;DHT22;63430;53.186;6.598;2023-10-08T12:04:51;17.00;93.40
52979;DHT22;63430;53.186;6.598;2023-10-08T12:06:54;16.90;86.40
52979;DHT22;63430;53.186;6.598;2023-10-08T12:08:57;17.00;93.00
52979;DHT22;63430;53.186;6.598;2023-10-08T12:11:14;17.00;92.70
52979;DHT22;63430;53.186;6.598;2023-10-08T12:13:20;17.00;92.10
52979;DHT22;63430;53.186;6.598;2023-10-08T12:15:31;17.00;92.20
52979;DHT22;63430;53.186;6.598;2023-10-08T12:17:43;17.00;92.20
52979;DHT22;63430;53.186;6.598;2023-10-08T12:19:46;16.90;91.90
52979;DHT22;63430;53.186;6.598;2023-10-08T12:21:49;16.90;91.60
52979;DHT22;63430;53.186;6.598;2023-10-08T12:23:51;16.90;91.20
52979;DHT22;63430;53.186;6.598;2023-10-08T12:25:57;16.80;91.00
52979;DHT22;63430;53.186;6.598;2023-10-08T12:28:00;16.80;91.10
52979;DHT22;63430;53.186;6.598;2023-10-08T12:30:12;16.80;91.10
52979;DHT22;63430;53.186;6.598;2023-10-08T12:32:15;16.90;91.00
52979;DHT22;63430;53.186;6.598;2023-10-08T12:34:20;17.00;90.90
52979;DHT22;63430;53.186;6.598;2023-10-08T12:36:25;17.00;90.90
52979;DHT22;63430;53.186;6.598;2023-10-08T12:38:29;17.10;90.80
52979;DHT22;63430;53.186;6.598;2023-10-08T12:40:32;17.20;90.80
52979;DHT22;63430;53.186;6.598;2023-10-08T12:42:51;17.30;90.60
52979;DHT22;63430;53.186;6.598;2023-10-08T12:44:53;17.40;90.50
52979;DHT22;63430;53.186;6.598;2023-10-08T12:47:02;17.50;90.00
52979;DHT22;63430;53.186;6.598;2023-10-08T12:49:08;17.60;89.10
52979;DHT22;63430;53.186;6.598;2023-10-08T12:51:11;17.60;89.20
52979;DHT22;63430;53.186;6.598;2023-10-08T12:53:14;17.70;88.00
52979;DHT22;63430;53.186;6.598;2023-10-08T12:55:18;17.80;88.70
52979;DHT22;63430;53.186;6.598;2023-10-08T12:57:21;17.80;87.60
52979;DHT22;63430;53.186;6.598;2023-10-08T12:59:27;17.90;87.10
52979;DHT22;63430;53.186;6.598;2023-10-08T13:01:35;17.90;87.30
52979;DHT22;63430;53.186;6.598;2023-10-08T13:03:41;17.90;86.40
52979;DHT22;63430;53.186;6.598;2023-10-08T13:05:44;17.90;78.80
52979;DHT22;63430;53.186;6.598;2023-10-08T13:07:55;17.80;86.90
52979;DHT22;63430;53.186;6.598;2023-10-08T13:09:57;17.70;85.00
52979;DHT22;63430;53.186;6.598;2023-10-08T13:12:08;17.50;85.00
52979;DHT22;63430;53.186;6.598;2023-10-08T13:14:12;17.40;85.40
52979;DHT22;63430;53.186;6.598;2023-10-08T13:16:15;17.40;85.10
52979;DHT22;63430;53.186;6.598;2023-10-08T13:18:18;17.40;85.60
52979;DHT22;63430;53.186;6.598;2023-10-08T13:20:23;17.40;86.40
52979;DHT22;63430;53.186;6.598;2023-10-08T13:22:28;17.50;85.30
52979;DHT22;63430;53.186;6.598;2023-10-08T13:24:31;17.60;85.70
52979;DHT22;63430;53.186;6.598;2023-10-08T13:26:34;17.60;85.60
52979;DHT22;63430;53.186;6.598;2023-10-08T13:28:37;17.70;86.30
52979;DHT22;63430;53.186;6.598;2023-10-08T13:30:39;17.70;85.50